Time;durP1;ratioP1;P1;durP2;ratioP2;P2;SDS_P1;SDS_P2;PMS_P1;PMS_P2;Temp;Humidity;BMP_temperature;BMP_pressure;BME280_temperature;BME280_humidity;BME280_pressure;Samples;Min_cycle;Max_cycle;Signal;HPM_P1;HPM_P2
2021/08/15 00:00:39;;;;;;;10.40;7.00;;;;;;;;;;2103949;28;20127;-44
2021/08/15 00:01:40;;;;;;;13.13;7.75;;;;;;;;;;2105485;28;20477;-43
2021/08/15 00:02:42;;;;;;;11.15;7.80;;;;;;;;;;2106045;28;20080;-43
2021/08/15 00:03:44;;;;;;;15.15;7.78;;;;;;;;;;2103792;28;20470;-43
2021/08/15 00:04:45;;;;;;;12.90;7.50;;;;;;;;;;2106184;28;20058;-43
2021/08/15 00:05:46;;;;;;;11.90;7.78;;;;;;;;;;2106821;28;20048;-44
2021/08/15 00:06:47;;;;;;;12.45;7.78;;;;;;;;;;2102981;28;20461;-43
2021/08/15 00:07:48;;;;;;;15.20;8.07;;;;;;;;;;2105883;28;20058;-44
2021/08/15 00:08:49;;;;;;;;;;;;;;;;;;2107377;28;20048;-43
2021/08/15 00:09:50;;;;;;;17.80;7.80;;;;;;;;;;2101961;28;19919;-43
2021/08/15 00:10:51;;;;;;;12.85;7.88;;;;;;;;;;2106767;28;20173;-44
2021/08/15 00:11:52;;;;;;;14.83;7.03;;;;;;;;;;2106934;28;20473;-43
2021/08/15 00:12:53;;;;;;;14.63;7.75;;;;;;;;;;2102198;28;20588;-43
2021/08/15 00:13:54;;;;;;;15.70;7.20;;;;;;;;;;2098498;28;20044;-43
2021/08/15 00:14:56;;;;;;;15.05;7.75;;;;;;;;;;2098368;28;20044;-43
2021/08/15 00:15:57;;;;;;;20.02;7.32;;;;;;;;;;2101669;28;20051;-43
2021/08/15 00:16:58;;;;;;;9.83;6.87;;;;;;;;;;2098398;28;20083;-43
2021/08/15 00:17:59;;;;;;;14.93;7.05;;;;;;;;;;2097983;28;20055;-43
2021/08/15 00:19:05;;;;;;;11.25;6.85;;;;;;;;;;2102861;28;20454;-43
2021/08/15 00:20:07;;;;;;;13.60;7.15;;;;;;;;;;2106812;28;20135;-42
2021/08/15 00:21:08;;;;;;;10.65;6.80;;;;;;;;;;2105245;28;20086;-43
2021/08/15 00:22:10;;;;;;;10.47;7.00;;;;;;;;;;2104549;28;20074;-43
2021/08/15 00:23:11;;;;;;;12.90;6.75;;;;;;;;;;2106728;28;20132;-43
2021/08/15 00:24:12;;;;;;;12.32;6.85;;;;;;;;;;2104775;28;20135;-43
2021/08/15 00:25:14;;;;;;;15.20;6.93;;;;;;;;;;2105094;28;20397;-43
2021/08/15 00:26:15;;;;;;;13.07;7.03;;;;;;;;;;2106773;28;20249;-44
2021/08/15 00:27:16;;;;;;;9.30;6.83;;;;;;;;;;2103082;28;20177;-43
2021/08/15 00:28:17;;;;;;;10.32;6.88;;;;;;;;;;2105349;28;20040;-43
2021/08/15 00:29:18;;;;;;;13.30;7.30;;;;;;;;;;2106601;28;20142;-43
2021/08/15 00:30:19;;;;;;;12.87;8.07;;;;;;;;;;2104590;28;20094;-43
2021/08/15 00:31:20;;;;;;;10.70;7.18;;;;;;;;;;2105197;28;20047;-43
2021/08/15 00:32:21;;;;;;;13.93;7.50;;;;;;;;;;2106746;28;20051;-43
2021/08/15 00:33:22;;;;;;;12.88;7.43;;;;;;;;;;2103054;28;20053;-42
2021/08/15 00:34:23;;;;;;;11.53;6.03;;;;;;;;;;2099892;28;20040;-42
2021/08/15 00:35:25;;;;;;;10.13;7.10;;;;;;;;;;2098193;28;20098;-43
2021/08/15 00:36:26;;;;;;;15.90;6.32;;;;;;;;;;2100586;28;20044;-43
2021/08/15 00:37:27;;;;;;;10.17;7.00;;;;;;;;;;2098931;28;20059;-44
2021/08/15 00:38:28;;;;;;;9.35;6.38;;;;;;;;;;2098308;28;20416;-44
2021/08/15 00:39:29;;;;;;;10.30;6.63;;;;;;;;;;2099611;28;20048;-44
2021/08/15 00:40:30;;;;;;;13.03;7.80;;;;;;;;;;2106234;28;20048;-44
2021/08/15 00:41:31;;;;;;;12.95;7.53;;;;;;;;;;2106539;28;20284;-43
2021/08/15 00:42:32;;;;;;;15.00;6.77;;;;;;;;;;2102492;28;20481;-44
2021/08/15 00:43:33;;;;;;;13.20;7.28;;;;;;;;;;2097789;28;20278;-43
2021/08/15 00:44:35;;;;;;;24.38;8.27;;;;;;;;;;2098103;28;20079;-43
2021/08/15 00:45:36;;;;;;;10.23;6.97;;;;;;;;;;2101524;28;20098;-43
2021/08/15 00:46:38;;;;;;;10.95;7.35;;;;;;;;;;2106497;28;20492;-43
2021/08/15 00:47:39;;;;;;;;;;;;;;;;;;2106112;28;20170;-43
2021/08/15 00:48:40;;;;;;;12.73;7.28;;;;;;;;;;2101707;28;19920;-43
2021/08/15 00:49:42;;;;;;;11.13;7.45;;;;;;;;;;2098224;28;20044;-43
2021/08/15 00:50:43;;;;;;;12.00;7.38;;;;;;;;;;2097773;28;20075;-43
2021/08/15 00:51:44;;;;;;;11.50;7.47;;;;;;;;;;2103658;28;20511;-43
2021/08/15 00:52:45;;;;;;;10.43;7.30;;;;;;;;;;2099991;28;20135;-43
2021/08/15 00:53:47;;;;;;;9.48;7.03;;;;;;;;;;2097443;28;20559;-43
2021/08/15 00:54:48;;;;;;;11.95;7.30;;;;;;;;;;2101858;28;20189;-43
2021/08/15 00:55:49;;;;;;;12.55;7.60;;;;;;;;;;2098074;28;20518;-44
2021/08/15 00:56:51;;;;;;;13.33;7.40;;;;;;;;;;2097834;28;20106;-43
2021/08/15 00:57:51;;;;;;;12.27;6.80;;;;;;;;;;2101424;28;20040;-44
2021/08/15 00:58:54;;;;;;;10.60;7.03;;;;;;;;;;2098302;28;20048;-44
2021/08/15 00:59:56;;;;;;;14.15;7.30;;;;;;;;;;2099624;28;20127;-44
2021/08/15 01:00:57;;;;;;;12.40;6.75;;;;;;;;;;2105055;28;20123;-44
2021/08/15 01:01:59;;;;;;;10.82;6.95;;;;;;;;;;2106327;28;20940;-46
2021/08/15 01:03:00;;;;;;;12.75;6.85;;;;;;;;;;2102891;28;20048;-43
2021/08/15 01:04:03;;;;;;;10.45;6.88;;;;;;;;;;2105126;28;20546;-42
2021/08/15 01:05:06;;;;;;;11.50;7.13;;;;;;;;;;2106544;28;20131;-44
2021/08/15 01:06:07;;;;;;;12.30;8.10;;;;;;;;;;2101822;28;20123;-43
2021/08/15 01:07:08;;;;;;;12.45;7.60;;;;;;;;;;2106192;28;20098;-44
2021/08/15 01:08:09;;;;;;;10.30;7.00;;;;;;;;;;2106397;28;20504;-44
2021/08/15 01:09:10;;;;;;;11.23;7.23;;;;;;;;;;2102668;28;20040;-44
2021/08/15 01:10:11;;;;;;;14.82;7.50;;;;;;;;;;2097963;28;20054;-43
2021/08/15 01:11:12;;;;;;;11.85;6.88;;;;;;;;;;2098108;28;20135;-44
2021/08/15 01:12:13;;;;;;;10.88;6.75;;;;;;;;;;2100548;28;20167;-43
2021/08/15 01:13:15;;;;;;;12.17;7.50;;;;;;;;;;2106398;28;20325;-43
2021/08/15 01:14:16;;;;;;;13.82;7.18;;;;;;;;;;2106463;28;20044;-44
2021/08/15 01:15:17;;;;;;;13.48;6.75;;;;;;;;;;2101512;28;20147;-43
2021/08/15 01:16:18;;;;;;;12.05;7.80;;;;;;;;;;2106421;28;20054;-43
2021/08/15 01:17:20;;;;;;;10.83;7.03;;;;;;;;;;2105250;28;20405;-44
2021/08/15 01:18:22;;;;;;;9.95;6.97;;;;;;;;;;2102397;28;20046;-43
2021/08/15 01:19:27;;;;;;;9.82;6.68;;;;;;;;;;2106094;28;20124;-43
2021/08/15 01:20:29;;;;;;;15.38;6.95;;;;;;;;;;2103358;28;20048;-42
2021/08/15 01:21:30;;;;;;;13.27;8.23;;;;;;;;;;2101481;28;20052;-43
2021/08/15 01:22:34;;;;;;;13.65;7.18;;;;;;;;;;2097438;28;20577;-43
2021/08/15 01:23:36;;;;;;;10.15;6.53;;;;;;;;;;2097592;28;20048;-43
2021/08/15 01:24:41;;;;;;;10.13;7.15;;;;;;;;;;2104893;28;20055;-43
2021/08/15 01:26:00;;;;;;;10.30;6.95;;;;;;;;;;2106187;28;20058;-43
2021/08/15 01:27:02;;;;;;;9.80;7.22;;;;;;;;;;2101037;28;20560;-43
2021/08/15 01:28:04;;;;;;;12.85;6.82;;;;;;;;;;2105912;28;20054;-43
2021/08/15 01:29:05;;;;;;;;;;;;;;;;;;2106506;28;20488;-43
2021/08/15 01:30:07;;;;;;;13.73;7.03;;;;;;;;;;2101316;28;19931;-43
2021/08/15 01:31:09;;;;;;;8.63;6.88;;;;;;;;;;2097679;28;20127;-44
2021/08/15 01:32:10;;;;;;;11.95;7.30;;;;;;;;;;2097155;28;20135;-43
2021/08/15 01:33:12;;;;;;;13.77;7.40;;;;;;;;;;2101157;28;20050;-43
2021/08/15 01:34:13;;;;;;;;;;;;;;;;;;2098031;28;20047;-43
2021/08/15 01:35:14;;;;;;;9.15;6.40;;;;;;;;;;2098271;28;19920;-43
2021/08/15 01:36:16;;;;;;;10.57;6.63;;;;;;;;;;2104287;28;20043;-42
2021/08/15 01:37:20;;;;;;;10.13;6.53;;;;;;;;;;2105982;28;20044;-43
2021/08/15 01:38:22;;;;;;;11.00;7.20;;;;;;;;;;2103681;28;20100;-43
2021/08/15 01:39:23;;;;;;;10.77;7.55;;;;;;;;;;2105319;28;20512;-44
2021/08/15 01:40:24;;;;;;;9.55;6.32;;;;;;;;;;2105790;28;20048;-43
2021/08/15 01:41:25;;;;;;;10.23;7.17;;;;;;;;;;2102780;28;20102;-44
2021/08/15 01:42:26;;;;;;;12.60;7.10;;;;;;;;;;2104322;28;20059;-43
2021/08/15 01:43:28;;;;;;;11.30;7.27;;;;;;;;;;2105807;28;20499;-43
2021/08/15 01:44:29;;;;;;;10.82;6.88;;;;;;;;;;2101873;28;20677;-43
2021/08/15 01:45:31;;;;;;;10.83;7.30;;;;;;;;;;2104402;28;20055;-43
2021/08/15 01:46:33;;;;;;;13.82;7.22;;;;;;;;;;2105942;28;20044;-43
2021/08/15 01:47:34;;;;;;;;;;;;;;;;;;2103518;28;20574;-43
2021/08/15 01:48:35;;;;;;;10.98;7.25;;;;;;;;;;2105376;28;19920;-43
2021/08/15 01:49:35;;;;;;;10.25;7.10;;;;;;;;;;2106058;28;20138;-43
2021/08/15 01:50:37;;;;;;;12.43;6.90;;;;;;;;;;2102832;28;20048;-44
2021/08/15 01:51:37;;;;;;;10.55;7.47;;;;;;;;;;2106053;28;20131;-43
2021/08/15 01:52:39;;;;;;;12.37;8.27;;;;;;;;;;2100601;28;20044;-43
2021/08/15 01:53:40;;;;;;;11.05;7.00;;;;;;;;;;2101080;28;20050;-43
2021/08/15 01:54:41;;;;;;;12.67;7.30;;;;;;;;;;2105872;28;20044;-44
2021/08/15 01:55:42;;;;;;;10.32;6.50;;;;;;;;;;2106111;28;20083;-43
2021/08/15 01:56:43;;;;;;;14.50;7.18;;;;;;;;;;2101809;28;20134;-44
2021/08/15 01:57:44;;;;;;;9.40;6.85;;;;;;;;;;2097771;28;20140;-43
2021/08/15 01:58:45;;;;;;;10.93;7.00;;;;;;;;;;2097628;28;20059;-43
2021/08/15 01:59:46;;;;;;;10.75;6.38;;;;;;;;;;2100945;28;20390;-44
2021/08/15 02:00:48;;;;;;;13.77;7.53;;;;;;;;;;2097680;28;20139;-43
2021/08/15 02:01:49;;;;;;;;;;;;;;;;;;2097869;28;20076;-43
2021/08/15 02:02:50;;;;;;;14.75;6.75;;;;;;;;;;2101146;28;19920;-43
2021/08/15 02:03:51;;;;;;;11.00;6.90;;;;;;;;;;2097643;28;20504;-43
2021/08/15 02:04:52;;;;;;;10.73;6.82;;;;;;;;;;2098424;28;20128;-43
2021/08/15 02:05:53;;;;;;;13.17;7.07;;;;;;;;;;2102913;28;20036;-44
2021/08/15 02:06:54;;;;;;;15.27;7.18;;;;;;;;;;2106068;28;20127;-44
2021/08/15 02:07:55;;;;;;;11.37;7.00;;;;;;;;;;2103382;28;20048;-43
2021/08/15 02:08:58;;;;;;;13.98;7.07;;;;;;;;;;2104004;28;20090;-44
2021/08/15 02:09:59;;;;;;;11.00;6.97;;;;;;;;;;2105966;28;20129;-43
2021/08/15 02:11:00;;;;;;;9.93;7.10;;;;;;;;;;2102772;28;20143;-42
2021/08/15 02:12:02;;;;;;;13.32;7.10;;;;;;;;;;2104403;28;20040;-43
2021/08/15 02:13:04;;;;;;;11.50;6.78;;;;;;;;;;2105847;28;20404;-43
2021/08/15 02:14:04;;;;;;;;;;;;;;;;;;2102869;28;20131;-43
2021/08/15 02:15:06;;;;;;;11.90;6.82;;;;;;;;;;2098852;28;20289;-44
2021/08/15 02:16:07;;;;;;;;;;;;;;;;;;2097369;28;20048;-43
2021/08/15 02:17:09;;;;;;;11.73;7.30;;;;;;;;;;2097194;28;19935;-43
2021/08/15 02:18:10;;;;;;;14.18;6.95;;;;;;;;;;2104030;28;20146;-43
2021/08/15 02:19:11;;;;;;;13.15;7.25;;;;;;;;;;2105963;28;20044;-43
2021/08/15 02:20:12;;;;;;;10.23;7.23;;;;;;;;;;2102452;28;20520;-43
2021/08/15 02:21:13;;;;;;;13.55;6.97;;;;;;;;;;2098751;28;20041;-44
2021/08/15 02:22:14;;;;;;;10.13;6.83;;;;;;;;;;2097490;28;20476;-44
2021/08/15 02:23:15;;;;;;;10.13;6.30;;;;;;;;;;2101364;28;20046;-43
2021/08/15 02:24:16;;;;;;;10.73;6.53;;;;;;;;;;2098205;28;20052;-42
2021/08/15 02:25:18;;;;;;;11.50;7.43;;;;;;;;;;2097541;28;20466;-43
2021/08/15 02:26:19;;;;;;;10.98;6.78;;;;;;;;;;2099909;28;20044;-42
2021/08/15 02:27:20;;;;;;;10.50;6.90;;;;;;;;;;2097500;28;20048;-43
2021/08/15 02:28:21;;;;;;;10.30;6.93;;;;;;;;;;2097472;28;20043;-43
2021/08/15 02:29:22;;;;;;;10.43;6.80;;;;;;;;;;2100164;28;20414;-43
2021/08/15 02:30:24;;;;;;;10.20;6.85;;;;;;;;;;2105803;28;20084;-44
2021/08/15 02:31:25;;;;;;;9.82;7.30;;;;;;;;;;2105790;28;20375;-43
2021/08/15 02:32:27;;;;;;;12.73;7.13;;;;;;;;;;2101492;28;20047;-43
2021/08/15 02:33:28;;;;;;;14.18;7.10;;;;;;;;;;2106087;28;20329;-43
2021/08/15 02:34:29;;;;;;;13.07;7.53;;;;;;;;;;2105424;28;20131;-43
2021/08/15 02:35:31;;;;;;;9.97;6.80;;;;;;;;;;2102632;28;20075;-42
2021/08/15 02:36:32;;;;;;;12.35;7.22;;;;;;;;;;2105839;28;20590;-42
2021/08/15 02:37:34;;;;;;;10.23;6.82;;;;;;;;;;2103659;28;20054;-43
2021/08/15 02:38:34;;;;;;;10.00;6.80;;;;;;;;;;2103263;28;20170;-43
2021/08/15 02:39:36;;;;;;;16.33;7.23;;;;;;;;;;2105895;28;20044;-43
2021/08/15 02:40:37;;;;;;;11.18;7.07;;;;;;;;;;2102977;28;20127;-44
2021/08/15 02:41:38;;;;;;;11.05;7.05;;;;;;;;;;2103065;28;20126;-43
2021/08/15 02:42:40;;;;;;;9.40;6.63;;;;;;;;;;2105831;28;20135;-43
2021/08/15 02:43:41;;;;;;;;;;;;;;;;;;2103875;28;20041;-45
2021/08/15 02:44:42;;;;;;;10.98;7.20;;;;;;;;;;2100638;28;20369;-43
2021/08/15 02:45:44;;;;;;;14.38;6.45;;;;;;;;;;2097505;28;20048;-42
2021/08/15 02:46:45;;;;;;;12.43;6.45;;;;;;;;;;2099236;28;20082;-43
2021/08/15 02:47:47;;;;;;;11.30;6.80;;;;;;;;;;2104008;28;20055;-43
2021/08/15 02:48:48;;;;;;;10.88;7.38;;;;;;;;;;2105868;28;20051;-43
2021/08/15 02:49:49;;;;;;;14.10;7.50;;;;;;;;;;2103398;28;20473;-43
2021/08/15 02:50:50;;;;;;;16.00;7.72;;;;;;;;;;2104881;28;20048;-43
2021/08/15 02:51:51;;;;;;;14.10;7.37;;;;;;;;;;2105845;28;20043;-43
2021/08/15 02:52:52;;;;;;;11.43;6.47;;;;;;;;;;2100723;28;20131;-43
2021/08/15 02:53:53;;;;;;;12.73;6.83;;;;;;;;;;2105559;28;20047;-43
2021/08/15 02:54:54;;;;;;;12.05;6.78;;;;;;;;;;2105694;28;20169;-44
2021/08/15 02:55:55;;;;;;;12.13;7.33;;;;;;;;;;2100885;28;20546;-43
2021/08/15 02:56:56;;;;;;;13.15;7.10;;;;;;;;;;2105630;28;20051;-42
2021/08/15 02:57:59;;;;;;;32.53;8.13;;;;;;;;;;2105556;28;20056;-44
2021/08/15 02:59:00;;;;;;;26.73;8.27;;;;;;;;;;2101588;28;20130;-42
2021/08/15 03:00:01;;;;;;;10.73;7.57;;;;;;;;;;2097456;28;20410;-44
2021/08/15 03:01:02;;;;;;;10.13;6.60;;;;;;;;;;2097427;28;20055;-43
2021/08/15 03:02:04;;;;;;;10.65;6.85;;;;;;;;;;2100618;28;20040;-43
2021/08/15 03:03:06;;;;;;;15.93;7.28;;;;;;;;;;2105579;28;20047;-43
2021/08/15 03:04:07;;;;;;;;;;;;;;;;;;2105123;28;20127;-44
2021/08/15 03:05:08;;;;;;;10.32;6.40;;;;;;;;;;2101844;28;19943;-43
2021/08/15 03:06:09;;;;;;;10.27;7.22;;;;;;;;;;2105598;28;20048;-44
2021/08/15 03:07:10;;;;;;;11.43;7.30;;;;;;;;;;2104057;28;20051;-43
2021/08/15 03:08:11;;;;;;;10.55;6.72;;;;;;;;;;2100816;28;20374;-42
2021/08/15 03:09:12;;;;;;;13.23;6.67;;;;;;;;;;2097420;28;20122;-44
2021/08/15 03:10:13;;;;;;;10.77;7.13;;;;;;;;;;2099948;28;20130;-42
2021/08/15 03:11:14;;;;;;;11.13;7.10;;;;;;;;;;2103417;28;20044;-43
2021/08/15 03:12:15;;;;;;;14.15;7.75;;;;;;;;;;2105560;28;20067;-43
2021/08/15 03:13:16;;;;;;;11.90;7.13;;;;;;;;;;2103753;28;20050;-43
2021/08/15 03:14:17;;;;;;;11.02;7.05;;;;;;;;;;2104052;28;20595;-43
2021/08/15 03:15:18;;;;;;;9.55;7.28;;;;;;;;;;2105691;28;20193;-43
2021/08/15 03:16:19;;;;;;;11.40;7.18;;;;;;;;;;2102290;28;20044;-43
2021/08/15 03:17:21;;;;;;;12.82;6.88;;;;;;;;;;2103989;28;20047;-44
2021/08/15 03:18:22;;;;;;;13.02;7.47;;;;;;;;;;2105723;28;20050;-43
2021/08/15 03:19:24;;;;;;;11.68;7.03;;;;;;;;;;2102115;28;20553;-43
2021/08/15 03:20:27;;;;;;;13.20;7.80;;;;;;;;;;2104014;28;20044;-43
2021/08/15 03:21:30;;;;;;;11.52;7.72;;;;;;;;;;2105688;28;20075;-43
2021/08/15 03:22:31;;;;;;;10.07;6.53;;;;;;;;;;2101965;28;20058;-43
2021/08/15 03:23:32;;;;;;;12.48;7.18;;;;;;;;;;2104247;28;20050;-43
2021/08/15 03:24:33;;;;;;;12.63;6.57;;;;;;;;;;2105638;28;20413;-43
2021/08/15 03:25:37;;;;;;;11.57;6.78;;;;;;;;;;2102004;28;20449;-43
2021/08/15 03:26:41;;;;;;;9.70;6.88;;;;;;;;;;2096723;28;20123;-44
2021/08/15 03:27:42;;;;;;;13.60;7.07;;;;;;;;;;2096484;28;20386;-43
2021/08/15 03:28:43;;;;;;;11.82;7.55;;;;;;;;;;2100305;28;20132;-43
2021/08/15 03:29:44;;;;;;;14.60;7.45;;;;;;;;;;2097224;28;20428;-43
2021/08/15 03:30:45;;;;;;;12.35;8.20;;;;;;;;;;2097235;28;20059;-44
2021/08/15 03:31:46;;;;;;;14.75;7.25;;;;;;;;;;2100996;28;20421;-43
2021/08/15 03:32:47;;;;;;;11.75;7.47;;;;;;;;;;2105535;28;20063;-43
2021/08/15 03:33:49;;;;;;;13.48;6.95;;;;;;;;;;2104620;28;20159;-43
2021/08/15 03:34:50;;;;;;;11.40;7.50;;;;;;;;;;2101971;28;20485;-43
2021/08/15 03:35:51;;;;;;;10.82;6.60;;;;;;;;;;2105487;28;20048;-43
2021/08/15 03:36:52;;;;;;;9.93;6.70;;;;;;;;;;2103621;28;20110;-43
2021/08/15 03:37:53;;;;;;;11.77;7.05;;;;;;;;;;2101821;28;20044;-44
2021/08/15 03:38:55;;;;;;;11.35;6.90;;;;;;;;;;2105601;28;20048;-43
2021/08/15 03:39:56;;;;;;;11.90;6.53;;;;;;;;;;2104050;28;20122;-43
2021/08/15 03:40:57;;;;;;;11.57;7.05;;;;;;;;;;2103692;28;20048;-43
2021/08/15 03:41:58;;;;;;;15.87;6.27;;;;;;;;;;2105429;28;20527;-42
2021/08/15 03:42:59;;;;;;;9.80;7.13;;;;;;;;;;2103613;28;20048;-43
2021/08/15 03:44:00;;;;;;;13.97;7.27;;;;;;;;;;2103896;28;20048;-43
2021/08/15 03:45:02;;;;;;;10.35;6.43;;;;;;;;;;2105539;28;20048;-44
2021/08/15 03:46:03;;;;;;;12.77;7.07;;;;;;;;;;2102063;28;20127;-43
2021/08/15 03:47:04;;;;;;;11.33;6.77;;;;;;;;;;2103924;28;20488;-44
2021/08/15 03:48:05;;;;;;;12.18;7.00;;;;;;;;;;2105410;28;20101;-43
2021/08/15 03:49:07;;;;;;;12.63;6.55;;;;;;;;;;2102034;28;20047;-44
2021/08/15 03:50:08;;;;;;;9.90;6.60;;;;;;;;;;2105278;28;20457;-43
2021/08/15 03:51:09;;;;;;;9.48;6.97;;;;;;;;;;2105229;28;20467;-43
2021/08/15 03:52:10;;;;;;;13.00;7.20;;;;;;;;;;2099445;28;20147;-43
2021/08/15 03:53:11;;;;;;;9.70;6.55;;;;;;;;;;2104822;28;20040;-43
2021/08/15 03:54:16;;;;;;;10.23;6.57;;;;;;;;;;2105524;28;20066;-44
2021/08/15 03:55:17;;;;;;;8.70;6.72;;;;;;;;;;2103111;28;20060;-44
2021/08/15 03:56:18;;;;;;;11.03;6.50;;;;;;;;;;2097233;28;20053;-43
2021/08/15 03:57:19;;;;;;;11.88;6.45;;;;;;;;;;2096936;28;20520;-44
2021/08/15 03:58:20;;;;;;;9.75;6.97;;;;;;;;;;2100301;28;20040;-43
2021/08/15 03:59:22;;;;;;;11.33;6.60;;;;;;;;;;2097131;28;20102;-42
2021/08/15 04:00:23;;;;;;;8.98;6.45;;;;;;;;;;2096938;28;20432;-44
2021/08/15 04:01:24;;;;;;;10.57;6.73;;;;;;;;;;2100154;28;20040;-44
2021/08/15 04:02:25;;;;;;;10.57;7.10;;;;;;;;;;2096908;28;20404;-44
2021/08/15 04:03:26;;;;;;;11.90;6.70;;;;;;;;;;2096968;28;20044;-43
2021/08/15 04:04:28;;;;;;;12.73;6.95;;;;;;;;;;2102279;28;20297;-44
2021/08/15 04:05:29;;;;;;;12.68;7.38;;;;;;;;;;2105465;28;20131;-43
2021/08/15 04:06:30;;;;;;;13.03;6.70;;;;;;;;;;2103748;28;20060;-45
2021/08/15 04:07:31;;;;;;;10.05;7.20;;;;;;;;;;2101594;28;20420;-44
2021/08/15 04:08:32;;;;;;;12.13;6.97;;;;;;;;;;2097037;28;20124;-44
2021/08/15 04:09:33;;;;;;;11.37;7.40;;;;;;;;;;2096676;28;20051;-43
2021/08/15 04:10:34;;;;;;;16.88;7.05;;;;;;;;;;2103662;28;20291;-45
2021/08/15 04:11:35;;;;;;;12.00;6.70;;;;;;;;;;2105232;28;20056;-44
2021/08/15 04:12:36;;;;;;;10.30;6.53;;;;;;;;;;2102028;28;20485;-43
2021/08/15 04:13:37;;;;;;;9.97;6.93;;;;;;;;;;2099884;28;20044;-43
2021/08/15 04:14:38;;;;;;;15.40;8.02;;;;;;;;;;2097039;28;20317;-43
2021/08/15 04:15:39;;;;;;;12.50;7.15;;;;;;;;;;2098160;28;20040;-43
2021/08/15 04:16:40;;;;;;;14.07;7.43;;;;;;;;;;2103724;28;20059;-43
2021/08/15 04:17:41;;;;;;;13.05;6.90;;;;;;;;;;2105280;28;20131;-42
2021/08/15 04:18:42;;;;;;;11.83;7.73;;;;;;;;;;2102055;28;20041;-44
2021/08/15 04:19:44;;;;;;;12.25;7.57;;;;;;;;;;2103719;28;20526;-43
2021/08/15 04:20:45;;;;;;;;;;;;;;;;;;2105795;28;20044;-44
2021/08/15 04:21:46;;;;;;;14.60;8.23;;;;;;;;;;2101949;28;19924;-43
2021/08/15 04:22:47;;;;;;;14.57;8.07;;;;;;;;;;2097708;28;20091;-43
2021/08/15 04:23:48;;;;;;;12.82;8.02;;;;;;;;;;2096925;28;20053;-43
2021/08/15 04:24:49;;;;;;;13.82;7.68;;;;;;;;;;2098036;28;20048;-43
2021/08/15 04:25:50;;;;;;;13.47;7.93;;;;;;;;;;2104852;28;20040;-43
2021/08/15 04:26:51;;;;;;;11.77;7.97;;;;;;;;;;2105261;28;20072;-43
2021/08/15 04:27:52;;;;;;;10.77;7.80;;;;;;;;;;2101494;28;20092;-44
2021/08/15 04:28:54;;;;;;;13.10;7.97;;;;;;;;;;2097320;28;20127;-44
2021/08/15 04:29:54;;;;;;;15.48;8.07;;;;;;;;;;2096981;28;20127;-43
2021/08/15 04:30:56;;;;;;;16.97;7.90;;;;;;;;;;2100604;28;20055;-43
2021/08/15 04:31:57;;;;;;;12.20;7.60;;;;;;;;;;2096776;28;20045;-44
2021/08/15 04:32:58;;;;;;;11.50;7.88;;;;;;;;;;2096773;28;20131;-44
2021/08/15 04:33:59;;;;;;;13.70;8.03;;;;;;;;;;2100945;28;20367;-45
2021/08/15 04:35:01;;;;;;;13.75;7.93;;;;;;;;;;2105269;28;20081;-44
2021/08/15 04:36:02;;;;;;;16.77;8.45;;;;;;;;;;2105086;28;20055;-44
2021/08/15 04:37:04;;;;;;;11.27;7.82;;;;;;;;;;2100371;28;20131;-43
2021/08/15 04:38:05;;;;;;;16.60;8.05;;;;;;;;;;2096748;28;20123;-43
2021/08/15 04:39:06;;;;;;;14.03;8.00;;;;;;;;;;2098687;28;20493;-44
2021/08/15 04:40:08;;;;;;;13.90;7.68;;;;;;;;;;2103598;28;20100;-43
2021/08/15 04:41:09;;;;;;;12.15;7.07;;;;;;;;;;2106132;28;20123;-43
2021/08/15 04:42:10;;;;;;;10.20;6.80;;;;;;;;;;2104468;28;20097;-44
2021/08/15 04:43:11;;;;;;;13.57;7.90;;;;;;;;;;2103936;28;20089;-43
2021/08/15 04:44:12;;;;;;;12.23;7.50;;;;;;;;;;2103408;28;20135;-44
2021/08/15 04:45:13;;;;;;;13.03;7.57;;;;;;;;;;2102090;28;20044;-43
2021/08/15 04:46:14;;;;;;;14.40;7.45;;;;;;;;;;2102284;28;20360;-43
2021/08/15 04:47:15;;;;;;;12.68;7.75;;;;;;;;;;2103189;28;20097;-43
2021/08/15 04:48:16;;;;;;;15.38;7.25;;;;;;;;;;2101975;28;20130;-44
2021/08/15 04:49:17;;;;;;;16.17;7.43;;;;;;;;;;2104170;28;20058;-43
2021/08/15 04:50:19;;;;;;;12.43;7.68;;;;;;;;;;2101016;28;20512;-44
2021/08/15 04:51:20;;;;;;;21.60;7.93;;;;;;;;;;2101505;28;20101;-44
2021/08/15 04:52:21;;;;;;;17.00;7.68;;;;;;;;;;2100704;28;20048;-44
2021/08/15 04:53:22;;;;;;;12.77;7.83;;;;;;;;;;2102234;28;20508;-44
2021/08/15 04:54:23;;;;;;;13.23;7.30;;;;;;;;;;2100959;28;20281;-44
2021/08/15 04:55:24;;;;;;;12.88;7.68;;;;;;;;;;2103343;28;20050;-46
2021/08/15 04:56:26;;;;;;;13.15;7.45;;;;;;;;;;2101329;28;20192;-45
2021/08/15 04:57:26;;;;;;;14.02;7.70;;;;;;;;;;2100411;28;20055;-45
2021/08/15 04:58:27;;;;;;;15.23;7.77;;;;;;;;;;2102270;28;20414;-45
2021/08/15 04:59:28;;;;;;;10.32;7.55;;;;;;;;;;2100815;28;20659;-43
2021/08/15 05:00:29;;;;;;;10.63;7.47;;;;;;;;;;2103329;28;20078;-44
2021/08/15 05:01:31;;;;;;;18.15;7.88;;;;;;;;;;2103304;28;20509;-45
2021/08/15 05:02:32;;;;;;;11.23;6.63;;;;;;;;;;2103038;28;20048;-44
2021/08/15 05:03:34;;;;;;;14.43;6.68;;;;;;;;;;2103553;28;20046;-44
2021/08/15 05:04:35;;;;;;;11.18;6.97;;;;;;;;;;2103079;28;20048;-44
2021/08/15 05:05:39;;;;;;;13.67;6.83;;;;;;;;;;2100487;28;20078;-45
2021/08/15 05:06:40;;;;;;;12.93;6.80;;;;;;;;;;2101659;28;20044;-44
2021/08/15 05:07:41;;;;;;;9.82;6.85;;;;;;;;;;2102482;28;20040;-44
2021/08/15 05:08:41;;;;;;;11.32;6.93;;;;;;;;;;2100644;28;20170;-45
2021/08/15 05:09:43;;;;;;;10.67;6.73;;;;;;;;;;2102527;28;20142;-44
2021/08/15 05:10:43;;;;;;;11.18;7.03;;;;;;;;;;2102402;28;20496;-43
2021/08/15 05:11:46;;;;;;;10.97;6.77;;;;;;;;;;2101341;28;20048;-46
2021/08/15 05:12:47;;;;;;;14.98;6.93;;;;;;;;;;2103789;28;20085;-44
2021/08/15 05:13:49;;;;;;;8.57;6.43;;;;;;;;;;2101692;28;20051;-44
2021/08/15 05:14:50;;;;;;;11.25;7.00;;;;;;;;;;2101465;28;20124;-44
2021/08/15 05:15:51;;;;;;;13.43;6.30;;;;;;;;;;2104397;28;20397;-44
2021/08/15 05:16:52;;;;;;;13.23;6.50;;;;;;;;;;2103910;28;20288;-46
2021/08/15 05:17:53;;;;;;;12.07;6.77;;;;;;;;;;2102120;28;20048;-45
2021/08/15 05:18:55;;;;;;;9.18;6.25;;;;;;;;;;2104049;28;20044;-45
2021/08/15 05:19:56;;;;;;;12.25;6.88;;;;;;;;;;2100143;28;20090;-44
2021/08/15 05:20:58;;;;;;;12.27;6.60;;;;;;;;;;2100654;28;20463;-43
2021/08/15 05:21:59;;;;;;;10.63;6.55;;;;;;;;;;2101385;28;20715;-44
2021/08/15 05:23:00;;;;;;;9.97;6.13;;;;;;;;;;2099905;28;20049;-45
2021/08/15 05:24:01;;;;;;;13.07;6.63;;;;;;;;;;2100925;28;20060;-45
2021/08/15 05:25:02;;;;;;;10.05;5.90;;;;;;;;;;2104909;28;20048;-44
2021/08/15 05:26:03;;;;;;;13.52;6.60;;;;;;;;;;2101250;28;20138;-44
2021/08/15 05:27:04;;;;;;;10.80;6.07;;;;;;;;;;2100958;28;20048;-46
2021/08/15 05:28:05;;;;;;;11.10;6.17;;;;;;;;;;2099421;28;20398;-44
2021/08/15 05:29:06;;;;;;;8.68;6.15;;;;;;;;;;2103656;28;20179;-45
2021/08/15 05:30:08;;;;;;;11.77;6.53;;;;;;;;;;2102714;28;20522;-44
2021/08/15 05:31:09;;;;;;;11.35;6.22;;;;;;;;;;2103748;28;20048;-45
2021/08/15 05:32:11;;;;;;;12.07;6.45;;;;;;;;;;2099370;28;20045;-45
2021/08/15 05:33:12;;;;;;;8.90;5.95;;;;;;;;;;2102941;28;20139;-46
2021/08/15 05:34:13;;;;;;;9.57;5.97;;;;;;;;;;2103512;28;20048;-45
2021/08/15 05:35:14;;;;;;;10.60;5.93;;;;;;;;;;2100430;28;20044;-45
2021/08/15 05:36:19;;;;;;;10.18;5.60;;;;;;;;;;2100183;28;20300;-45
2021/08/15 05:37:20;;;;;;;11.40;5.78;;;;;;;;;;2098880;28;20106;-46
2021/08/15 05:38:21;;;;;;;10.45;6.07;;;;;;;;;;2097849;28;20048;-47
2021/08/15 05:39:22;;;;;;;12.63;6.33;;;;;;;;;;2103020;28;20713;-45
2021/08/15 05:40:23;;;;;;;12.38;6.32;;;;;;;;;;2102332;28;20048;-46
2021/08/15 05:41:26;;;;;;;9.32;5.43;;;;;;;;;;2101105;28;20170;-45
2021/08/15 05:42:27;;;;;;;10.40;5.20;;;;;;;;;;2104566;28;20538;-48
2021/08/15 05:43:28;;;;;;;11.88;6.03;;;;;;;;;;2101544;28;20127;-46
2021/08/15 05:44:29;;;;;;;10.37;5.97;;;;;;;;;;2102054;28;20054;-47
2021/08/15 05:45:35;;;;;;;8.52;5.28;;;;;;;;;;2104917;28;20392;-46
2021/08/15 05:46:35;;;;;;;9.80;5.10;;;;;;;;;;2106659;28;20048;-44
2021/08/15 05:47:37;;;;;;;8.70;5.13;;;;;;;;;;2103220;28;20449;-46
2021/08/15 05:48:38;;;;;;;8.77;5.45;;;;;;;;;;2104760;28;20131;-46
2021/08/15 05:49:39;;;;;;;9.50;4.67;;;;;;;;;;2106231;28;20127;-46
2021/08/15 05:50:40;;;;;;;9.30;6.00;;;;;;;;;;2102178;28;20383;-49
2021/08/15 05:51:42;;;;;;;14.37;5.57;;;;;;;;;;2103648;28;20047;-46
2021/08/15 05:52:43;;;;;;;8.25;5.38;;;;;;;;;;2100861;28;20373;-46
2021/08/15 05:53:44;;;;;;;11.85;5.40;;;;;;;;;;2101561;28;20485;-45
2021/08/15 05:54:45;;;;;;;9.23;4.83;;;;;;;;;;2103569;28;20055;-47
2021/08/15 05:55:45;;;;;;;9.02;5.53;;;;;;;;;;2102935;28;20364;-47
2021/08/15 05:56:47;;;;;;;7.50;5.10;;;;;;;;;;2100392;28;20492;-46
2021/08/15 05:57:48;;;;;;;6.32;4.57;;;;;;;;;;2099425;28;20485;-44
2021/08/15 05:58:49;;;;;;;10.70;5.72;;;;;;;;;;2101631;28;20052;-48
2021/08/15 05:59:51;;;;;;;7.83;4.97;;;;;;;;;;2101694;28;20420;-45
2021/08/15 06:00:51;;;;;;;11.57;5.00;;;;;;;;;;2106493;28;20167;-45
2021/08/15 06:01:53;;;;;;;15.68;4.93;;;;;;;;;;2106503;28;20488;-46
2021/08/15 06:02:55;;;;;;;6.82;4.97;;;;;;;;;;2102804;28;20047;-44
2021/08/15 06:03:57;;;;;;;10.75;4.90;;;;;;;;;;2106404;28;20059;-43
2021/08/15 06:04:58;;;;;;;7.63;4.77;;;;;;;;;;2106043;28;20127;-47